sensor_id;sensor_type;location;lat;lon;timestamp;pressure;altitude;pressure_sealevel;temperature;humidity
69911;BME280;63555;49.920;17.868;2023-03-13T00:04:39;98180.75;;;4.75;63.98
69911;BME280;63555;49.920;17.868;2023-03-13T00:09:39;98181.78;;;4.72;64.21
69911;BME280;63555;49.920;17.868;2023-03-13T00:14:40;98179.63;;;4.65;64.00
69911;BME280;63555;49.920;17.868;2023-03-13T00:19:40;98188.47;;;4.62;64.88
69911;BME280;63555;49.920;17.868;2023-03-13T00:24:40;98178.31;;;4.58;65.43
69911;BME280;63555;49.920;17.868;2023-03-13T00:29:41;98197.34;;;4.60;66.52
69911;BME280;63555;49.920;17.868;2023-03-13T00:34:41;98181.84;;;4.57;66.81
69911;BME280;63555;49.920;17.868;2023-03-13T00:39:42;98181.31;;;4.52;66.73
69911;BME280;63555;49.920;17.868;2023-03-13T00:44:42;98177.19;;;4.47;66.80
69911;BME280;63555;49.920;17.868;2023-03-13T00:49:42;98149.50;;;4.45;67.15
69911;BME280;63555;49.920;17.868;2023-03-13T00:54:43;98155.56;;;4.45;67.58
69911;BME280;63555;49.920;17.868;2023-03-13T00:59:43;98151.66;;;4.53;67.99
69911;BME280;63555;49.920;17.868;2023-03-13T01:04:43;98159.75;;;4.62;68.16
69911;BME280;63555;49.920;17.868;2023-03-13T01:09:44;98172.25;;;4.71;68.45
69911;BME280;63555;49.920;17.868;2023-03-13T01:14:44;98181.56;;;4.75;68.29
69911;BME280;63555;49.920;17.868;2023-03-13T01:19:44;98177.19;;;4.76;68.37
69911;BME280;63555;49.920;17.868;2023-03-13T01:24:45;98180.56;;;4.78;68.33
69911;BME280;63555;49.920;17.868;2023-03-13T01:29:49;98172.81;;;4.76;68.18
69911;BME280;63555;49.920;17.868;2023-03-13T01:34:49;98198.09;;;4.76;68.70
69911;BME280;63555;49.920;17.868;2023-03-13T01:39:49;98209.47;;;4.75;68.78
69911;BME280;63555;49.920;17.868;2023-03-13T01:44:53;98194.53;;;4.77;69.20
69911;BME280;63555;49.920;17.868;2023-03-13T01:49:54;98223.19;;;4.78;69.32
69911;BME280;63555;49.920;17.868;2023-03-13T02:05:55;98220.19;;;4.85;69.08
69911;BME280;63555;49.920;17.868;2023-03-13T02:16:27;98239.50;;;4.68;69.48
69911;BME280;63555;49.920;17.868;2023-03-13T02:21:58;98231.56;;;4.69;69.74
69911;BME280;63555;49.920;17.868;2023-03-13T02:26:55;98247.63;;;4.77;69.62
69911;BME280;63555;49.920;17.868;2023-03-13T02:31:55;98246.31;;;4.85;69.54
69911;BME280;63555;49.920;17.868;2023-03-13T02:36:57;98238.94;;;4.91;69.25
69911;BME280;63555;49.920;17.868;2023-03-13T02:42:00;98248.28;;;4.95;69.23
69911;BME280;63555;49.920;17.868;2023-03-13T02:47:02;98254.25;;;4.97;69.19
69911;BME280;63555;49.920;17.868;2023-03-13T02:52:24;98267.13;;;5.00;69.17
69911;BME280;63555;49.920;17.868;2023-03-13T02:57:26;98266.94;;;5.03;68.84
69911;BME280;63555;49.920;17.868;2023-03-13T03:02:26;98273.00;;;5.04;68.53
69911;BME280;63555;49.920;17.868;2023-03-13T03:07:27;98270.47;;;5.02;69.06
69911;BME280;63555;49.920;17.868;2023-03-13T03:12:29;98263.47;;;5.03;68.84
69911;BME280;63555;49.920;17.868;2023-03-13T03:17:29;98257.31;;;5.04;68.72
69911;BME280;63555;49.920;17.868;2023-03-13T03:22:30;98252.09;;;5.04;68.90
69911;BME280;63555;49.920;17.868;2023-03-13T03:27:30;98263.47;;;5.03;68.71
69911;BME280;63555;49.920;17.868;2023-03-13T03:32:31;98265.25;;;5.02;68.76
69911;BME280;63555;49.920;17.868;2023-03-13T03:37:31;98266.00;;;5.04;68.76
69911;BME280;63555;49.920;17.868;2023-03-13T03:42:32;98267.78;;;5.04;68.80
69911;BME280;63555;49.920;17.868;2023-03-13T03:47:33;98259.19;;;5.02;68.67
69911;BME280;63555;49.920;17.868;2023-03-13T03:52:33;98240.16;;;5.00;69.05
69911;BME280;63555;49.920;17.868;2023-03-13T03:57:33;98227.47;;;4.94;68.93
69911;BME280;63555;49.920;17.868;2023-03-13T04:02:34;98228.59;;;4.90;68.86
69911;BME280;63555;49.920;17.868;2023-03-13T04:07:34;98205.66;;;4.80;69.21
69911;BME280;63555;49.920;17.868;2023-03-13T04:12:34;98199.13;;;4.73;69.63
69911;BME280;63555;49.920;17.868;2023-03-13T04:17:35;98203.59;;;4.71;69.26
69911;BME280;63555;49.920;17.868;2023-03-13T04:22:35;98193.06;;;4.73;69.94
69911;BME280;63555;49.920;17.868;2023-03-13T04:27:36;98201.72;;;4.73;69.71
69911;BME280;63555;49.920;17.868;2023-03-13T04:32:36;98200.78;;;4.74;69.90
69911;BME280;63555;49.920;17.868;2023-03-13T04:37:37;98199.75;;;4.77;70.12
69911;BME280;63555;49.920;17.868;2023-03-13T04:42:37;98197.72;;;4.82;69.89
69911;BME280;63555;49.920;17.868;2023-03-13T04:47:38;98194.34;;;4.80;69.90
69911;BME280;63555;49.920;17.868;2023-03-13T04:52:38;98194.06;;;4.85;70.27
69911;BME280;63555;49.920;17.868;2023-03-13T04:57:39;98190.97;;;4.92;70.35
69911;BME280;63555;49.920;17.868;2023-03-13T05:02:39;98196.75;;;4.97;70.34
69911;BME280;63555;49.920;17.868;2023-03-13T05:07:39;98183.50;;;5.00;70.32
69911;BME280;63555;49.920;17.868;2023-03-13T05:12:40;98180.50;;;5.06;70.47
69911;BME280;63555;49.920;17.868;2023-03-13T05:17:40;98181.06;;;5.11;70.62
69911;BME280;63555;49.920;17.868;2023-03-13T05:22:40;98185.75;;;5.21;70.83
69911;BME280;63555;49.920;17.868;2023-03-13T05:27:41;98191.31;;;5.29;70.67
69911;BME280;63555;49.920;17.868;2023-03-13T05:32:41;98182.06;;;5.37;70.96
69911;BME280;63555;49.920;17.868;2023-03-13T05:37:42;98172.03;;;5.44;70.79
69911;BME280;63555;49.920;17.868;2023-03-13T05:42:43;98174.16;;;5.52;70.69
69911;BME280;63555;49.920;17.868;2023-03-13T05:47:44;98174.81;;;5.55;70.99
69911;BME280;63555;49.920;17.868;2023-03-13T05:52:45;98170.22;;;5.59;70.79
69911;BME280;63555;49.920;17.868;2023-03-13T05:57:46;98176.09;;;5.62;70.75
69911;BME280;63555;49.920;17.868;2023-03-13T06:02:46;98163.66;;;5.66;71.32
69911;BME280;63555;49.920;17.868;2023-03-13T06:07:48;98156.34;;;5.71;71.46
69911;BME280;63555;49.920;17.868;2023-03-13T06:12:55;98155.84;;;5.79;71.62
69911;BME280;63555;49.920;17.868;2023-03-13T06:17:56;98157.09;;;5.86;71.61
69911;BME280;63555;49.920;17.868;2023-03-13T06:22:56;98140.72;;;5.96;71.56
69911;BME280;63555;49.920;17.868;2023-03-13T06:27:56;98120.16;;;6.17;71.61
69911;BME280;63555;49.920;17.868;2023-03-13T06:32:57;98112.59;;;6.51;71.39
69911;BME280;63555;49.920;17.868;2023-03-13T06:37:58;98106.84;;;6.95;70.50
69911;BME280;63555;49.920;17.868;2023-03-13T06:42:58;98109.50;;;7.43;70.08
69911;BME280;63555;49.920;17.868;2023-03-13T06:47:58;98101.22;;;7.84;68.58
69911;BME280;63555;49.920;17.868;2023-03-13T06:52:59;98090.16;;;8.03;68.44
69911;BME280;63555;49.920;17.868;2023-03-13T06:57:59;98077.44;;;8.65;67.44
69911;BME280;63555;49.920;17.868;2023-03-13T07:03:00;98078.72;;;9.04;66.59
69911;BME280;63555;49.920;17.868;2023-03-13T07:08:00;98073.66;;;9.23;66.04
69911;BME280;63555;49.920;17.868;2023-03-13T07:13:01;98081.47;;;9.46;65.63
69911;BME280;63555;49.920;17.868;2023-03-13T07:18:01;98086.53;;;9.90;64.49
69911;BME280;63555;49.920;17.868;2023-03-13T07:23:01;98062.97;;;10.31;63.89
69911;BME280;63555;49.920;17.868;2023-03-13T07:28:02;98069.88;;;10.52;62.85
69911;BME280;63555;49.920;17.868;2023-03-13T07:33:02;98071.00;;;10.29;62.67
69911;BME280;63555;49.920;17.868;2023-03-13T07:38:09;98076.38;;;10.07;63.01
69911;BME280;63555;49.920;17.868;2023-03-13T07:43:10;98076.25;;;10.08;62.95
69911;BME280;63555;49.920;17.868;2023-03-13T07:48:10;98078.19;;;10.06;62.58
69911;BME280;63555;49.920;17.868;2023-03-13T07:53:10;98063.09;;;10.08;62.84
69911;BME280;63555;49.920;17.868;2023-03-13T07:58:11;98066.38;;;10.01;62.29
69911;BME280;63555;49.920;17.868;2023-03-13T08:03:11;98062.50;;;10.05;62.26
69911;BME280;63555;49.920;17.868;2023-03-13T08:08:12;98056.88;;;9.88;62.60
69911;BME280;63555;49.920;17.868;2023-03-13T08:13:12;98052.81;;;9.84;62.68
69911;BME280;63555;49.920;17.868;2023-03-13T08:18:12;98054.81;;;9.71;62.84
69911;BME280;63555;49.920;17.868;2023-03-13T08:23:13;98049.88;;;9.57;62.96
69911;BME280;63555;49.920;17.868;2023-03-13T08:28:13;98034.81;;;9.48;63.51
69911;BME280;63555;49.920;17.868;2023-03-13T08:33:13;98019.13;;;9.46;63.32
69911;BME280;63555;49.920;17.868;2023-03-13T08:38:13;98028.81;;;9.46;63.58
69911;BME280;63555;49.920;17.868;2023-03-13T08:43:14;98055.72;;;9.49;63.39
69911;BME280;63555;49.920;17.868;2023-03-13T08:48:14;98022.09;;;9.53;63.44
69911;BME280;63555;49.920;17.868;2023-03-13T08:53:15;98025.53;;;9.65;62.96
69911;BME280;63555;49.920;17.868;2023-03-13T08:58:15;98024.69;;;9.85;63.20
69911;BME280;63555;49.920;17.868;2023-03-13T09:03:15;98022.56;;;10.20;62.97
69911;BME280;63555;49.920;17.868;2023-03-13T09:08:17;98005.50;;;10.55;62.06
69911;BME280;63555;49.920;17.868;2023-03-13T09:13:17;98018.75;;;10.74;61.71
69911;BME280;63555;49.920;17.868;2023-03-13T09:18:17;98001.94;;;10.75;61.32
69911;BME280;63555;49.920;17.868;2023-03-13T09:23:19;98003.22;;;10.81;61.32
69911;BME280;63555;49.920;17.868;2023-03-13T09:28:21;97996.41;;;10.88;60.84
69911;BME280;63555;49.920;17.868;2023-03-13T09:33:22;97976.97;;;10.89;60.42
69911;BME280;63555;49.920;17.868;2023-03-13T09:38:23;97963.66;;;10.91;60.20
69911;BME280;63555;49.920;17.868;2023-03-13T09:48:45;97942.97;;;10.96;59.60
69911;BME280;63555;49.920;17.868;2023-03-13T09:59:10;97945.34;;;11.18;58.34
69911;BME280;63555;49.920;17.868;2023-03-13T10:04:39;97916.47;;;10.97;58.59
69911;BME280;63555;49.920;17.868;2023-03-13T10:09:41;97910.06;;;10.80;58.99
69911;BME280;63555;49.920;17.868;2023-03-13T10:19:54;97869.25;;;10.75;59.15
69911;BME280;63555;49.920;17.868;2023-03-13T10:25:05;97861.06;;;10.88;59.03
69911;BME280;63555;49.920;17.868;2023-03-13T10:30:19;97847.84;;;11.16;58.13
69911;BME280;63555;49.920;17.868;2023-03-13T10:35:24;97846.28;;;11.43;57.55
69911;BME280;63555;49.920;17.868;2023-03-13T10:40:30;97850.59;;;11.71;56.84
69911;BME280;63555;49.920;17.868;2023-03-13T10:45:35;97846.50;;;11.96;56.58
69911;BME280;63555;49.920;17.868;2023-03-13T10:50:41;97856.72;;;12.09;55.80
69911;BME280;63555;49.920;17.868;2023-03-13T10:55:43;97841.75;;;12.00;55.42
69911;BME280;63555;49.920;17.868;2023-03-13T11:00:43;97842.97;;;11.78;55.55
69911;BME280;63555;49.920;17.868;2023-03-13T11:05:56;97843.69;;;11.61;55.44
69911;BME280;63555;49.920;17.868;2023-03-13T11:11:00;97842.22;;;11.48;55.14
69911;BME280;63555;49.920;17.868;2023-03-13T11:21:25;97829.91;;;11.30;55.14
69911;BME280;63555;49.920;17.868;2023-03-13T11:26:45;97823.22;;;11.26;55.32
69911;BME280;63555;49.920;17.868;2023-03-13T11:31:55;97819.91;;;11.24;54.41
69911;BME280;63555;49.920;17.868;2023-03-13T11:37:04;97822.72;;;11.12;54.66
69911;BME280;63555;49.920;17.868;2023-03-13T11:53:12;97794.59;;;10.74;54.14
69911;BME280;63555;49.920;17.868;2023-03-13T12:04:14;97785.59;;;10.58;53.99
69911;BME280;63555;49.920;17.868;2023-03-13T12:09:25;97784.34;;;10.52;54.10
69911;BME280;63555;49.920;17.868;2023-03-13T12:14:35;97792.41;;;10.50;53.55
69911;BME280;63555;49.920;17.868;2023-03-13T12:19:55;97784.34;;;10.52;53.83
69911;BME280;63555;49.920;17.868;2023-03-13T12:25:01;97777.41;;;10.51;53.59
69911;BME280;63555;49.920;17.868;2023-03-13T12:30:10;97765.06;;;10.51;53.27
69911;BME280;63555;49.920;17.868;2023-03-13T12:35:26;97765.75;;;10.63;53.85
69911;BME280;63555;49.920;17.868;2023-03-13T13:06:29;97759.38;;;11.12;51.97
69911;BME280;63555;49.920;17.868;2023-03-13T13:11:48;97781.59;;;11.10;52.50
69911;BME280;63555;49.920;17.868;2023-03-13T13:32:40;97766.81;;;10.80;52.45
69911;BME280;63555;49.920;17.868;2023-03-13T13:37:42;97754.06;;;10.75;52.83
69911;BME280;63555;49.920;17.868;2023-03-13T13:42:58;97717.44;;;10.72;52.44
69911;BME280;63555;49.920;17.868;2023-03-13T13:53:30;97696.47;;;10.80;52.48
69911;BME280;63555;49.920;17.868;2023-03-13T13:58:31;97693.69;;;10.82;52.40
69911;BME280;63555;49.920;17.868;2023-03-13T14:03:32;97677.84;;;10.82;52.52
69911;BME280;63555;49.920;17.868;2023-03-13T14:08:36;97687.03;;;10.78;52.80
69911;BME280;63555;49.920;17.868;2023-03-13T14:13:38;97682.31;;;10.72;53.44
69911;BME280;63555;49.920;17.868;2023-03-13T14:18:40;97665.13;;;10.68;53.38
69911;BME280;63555;49.920;17.868;2023-03-13T14:23:44;97650.44;;;10.65;53.89
69911;BME280;63555;49.920;17.868;2023-03-13T14:28:53;97662.09;;;10.63;53.77
69911;BME280;63555;49.920;17.868;2023-03-13T14:33:55;97661.81;;;10.66;54.11
69911;BME280;63555;49.920;17.868;2023-03-13T14:38:59;97646.09;;;10.74;53.85
69911;BME280;63555;49.920;17.868;2023-03-13T14:44:05;97637.03;;;10.86;53.98
69911;BME280;63555;49.920;17.868;2023-03-13T14:49:17;97623.78;;;10.96;54.19
69911;BME280;63555;49.920;17.868;2023-03-13T14:54:28;97618.63;;;11.04;53.69
69911;BME280;63555;49.920;17.868;2023-03-13T14:59:29;97618.84;;;11.10;53.61
69911;BME280;63555;49.920;17.868;2023-03-13T15:09:49;97627.91;;;11.08;53.44
69911;BME280;63555;49.920;17.868;2023-03-13T15:14:51;97615.69;;;11.07;53.77
69911;BME280;63555;49.920;17.868;2023-03-13T15:19:53;97637.78;;;11.06;53.53
69911;BME280;63555;49.920;17.868;2023-03-13T15:24:55;97659.72;;;11.06;53.33
69911;BME280;63555;49.920;17.868;2023-03-13T15:29:55;97673.59;;;11.08;53.69
69911;BME280;63555;49.920;17.868;2023-03-13T15:34:56;97681.50;;;11.08;53.90
69911;BME280;63555;49.920;17.868;2023-03-13T15:40:00;97678.16;;;11.06;54.19
69911;BME280;63555;49.920;17.868;2023-03-13T15:45:06;97676.38;;;11.07;53.99
69911;BME280;63555;49.920;17.868;2023-03-13T15:50:11;97672.75;;;11.08;54.02
69911;BME280;63555;49.920;17.868;2023-03-13T15:55:12;97671.22;;;11.05;54.38
69911;BME280;63555;49.920;17.868;2023-03-13T16:00:18;97671.53;;;11.02;54.49
69911;BME280;63555;49.920;17.868;2023-03-13T16:05:19;97669.88;;;11.01;54.67
69911;BME280;63555;49.920;17.868;2023-03-13T16:10:25;97647.09;;;11.00;54.61
69911;BME280;63555;49.920;17.868;2023-03-13T16:15:26;97633.91;;;11.00;54.51
69911;BME280;63555;49.920;17.868;2023-03-13T16:20:27;97624.09;;;10.93;54.68
69911;BME280;63555;49.920;17.868;2023-03-13T16:25:29;97621.34;;;10.84;54.52
69911;BME280;63555;49.920;17.868;2023-03-13T16:30:31;97618.59;;;10.76;54.44
69911;BME280;63555;49.920;17.868;2023-03-13T16:35:32;97610.75;;;10.67;54.54
69911;BME280;63555;49.920;17.868;2023-03-13T16:40:33;97598.97;;;10.61;54.74
69911;BME280;63555;49.920;17.868;2023-03-13T16:45:34;97603.56;;;10.59;54.72
69911;BME280;63555;49.920;17.868;2023-03-13T16:50:37;97574.69;;;10.58;54.88
69911;BME280;63555;49.920;17.868;2023-03-13T16:55:37;97548.47;;;10.56;54.94
69911;BME280;63555;49.920;17.868;2023-03-13T17:00:37;97556.53;;;10.55;54.44
69911;BME280;63555;49.920;17.868;2023-03-13T17:05:38;97545.75;;;10.48;54.55
69911;BME280;63555;49.920;17.868;2023-03-13T17:10:38;97524.41;;;10.41;54.63
69911;BME280;63555;49.920;17.868;2023-03-13T17:15:39;97497.25;;;10.31;54.92
69911;BME280;63555;49.920;17.868;2023-03-13T17:20:39;97501.44;;;10.24;55.23
69911;BME280;63555;49.920;17.868;2023-03-13T17:25:40;97505.44;;;10.18;55.49
69911;BME280;63555;49.920;17.868;2023-03-13T17:30:40;97495.88;;;10.17;55.26
69911;BME280;63555;49.920;17.868;2023-03-13T17:35:40;97509.19;;;10.16;55.49
69911;BME280;63555;49.920;17.868;2023-03-13T17:40:41;97487.84;;;10.19;55.43
69911;BME280;63555;49.920;17.868;2023-03-13T17:45:41;97490.91;;;10.24;55.27
69911;BME280;63555;49.920;17.868;2023-03-13T17:50:41;97469.22;;;10.30;54.63
69911;BME280;63555;49.920;17.868;2023-03-13T17:55:42;97477.81;;;10.32;54.97
69911;BME280;63555;49.920;17.868;2023-03-13T18:00:42;97469.47;;;10.37;54.81
69911;BME280;63555;49.920;17.868;2023-03-13T18:05:45;97486.94;;;10.38;54.98
69911;BME280;63555;49.920;17.868;2023-03-13T18:10:46;97506.50;;;10.35;54.94
69911;BME280;63555;49.920;17.868;2023-03-13T18:15:46;97490.59;;;10.27;54.87
69911;BME280;63555;49.920;17.868;2023-03-13T18:20:46;97449.03;;;10.21;54.97
69911;BME280;63555;49.920;17.868;2023-03-13T18:25:47;97447.38;;;10.10;55.22
69911;BME280;63555;49.920;17.868;2023-03-13T18:30:47;97437.16;;;10.07;55.43
69911;BME280;63555;49.920;17.868;2023-03-13T18:35:48;97409.97;;;10.07;55.26
69911;BME280;63555;49.920;17.868;2023-03-13T18:40:48;97442.38;;;10.17;54.88
69911;BME280;63555;49.920;17.868;2023-03-13T18:45:48;97444.31;;;10.25;54.90
69911;BME280;63555;49.920;17.868;2023-03-13T18:50:49;97432.78;;;10.26;54.55
69911;BME280;63555;49.920;17.868;2023-03-13T18:55:49;97420.44;;;10.26;54.58
69911;BME280;63555;49.920;17.868;2023-03-13T19:00:49;97411.94;;;10.32;54.38
69911;BME280;63555;49.920;17.868;2023-03-13T19:05:51;97390.63;;;10.53;53.95
69911;BME280;63555;49.920;17.868;2023-03-13T19:10:51;97394.94;;;10.72;54.07
69911;BME280;63555;49.920;17.868;2023-03-13T19:15:52;97382.34;;;10.83;53.55
69911;BME280;63555;49.920;17.868;2023-03-13T19:20:52;97380.44;;;10.94;53.13
69911;BME280;63555;49.920;17.868;2023-03-13T19:25:52;97383.84;;;11.04;53.46
69911;BME280;63555;49.920;17.868;2023-03-13T19:30:55;97416.38;;;11.12;53.00
69911;BME280;63555;49.920;17.868;2023-03-13T19:35:57;97396.63;;;11.16;53.00
69911;BME280;63555;49.920;17.868;2023-03-13T19:40:57;97404.03;;;11.13;52.92
69911;BME280;63555;49.920;17.868;2023-03-13T19:45:57;97383.06;;;11.11;53.07
69911;BME280;63555;49.920;17.868;2023-03-13T19:50:58;97407.78;;;11.10;52.85
69911;BME280;63555;49.920;17.868;2023-03-13T19:55:58;97400.41;;;11.14;52.65
69911;BME280;63555;49.920;17.868;2023-03-13T20:00:59;97404.53;;;11.16;52.38
69911;BME280;63555;49.920;17.868;2023-03-13T20:05:59;97402.06;;;11.15;52.27
69911;BME280;63555;49.920;17.868;2023-03-13T20:10:59;97395.13;;;11.14;52.81
69911;BME280;63555;49.920;17.868;2023-03-13T20:16:00;97400.41;;;11.14;52.45
69911;BME280;63555;49.920;17.868;2023-03-13T20:21:00;97394.75;;;11.09;52.38
69911;BME280;63555;49.920;17.868;2023-03-13T20:26:05;97391.22;;;11.00;53.13
69911;BME280;63555;49.920;17.868;2023-03-13T20:31:09;97384.91;;;10.93;52.82
69911;BME280;63555;49.920;17.868;2023-03-13T20:36:12;97390.63;;;10.89;52.91
69911;BME280;63555;49.920;17.868;2023-03-13T20:41:13;97388.00;;;10.89;52.88
69911;BME280;63555;49.920;17.868;2023-03-13T20:46:15;97369.38;;;10.90;52.82
69911;BME280;63555;49.920;17.868;2023-03-13T20:51:16;97381.75;;;10.90;53.29
69911;BME280;63555;49.920;17.868;2023-03-13T20:56:16;97392.06;;;10.83;53.11
69911;BME280;63555;49.920;17.868;2023-03-13T21:01:16;97383.63;;;10.79;53.04
69911;BME280;63555;49.920;17.868;2023-03-13T21:06:17;97381.16;;;10.78;53.19
69911;BME280;63555;49.920;17.868;2023-03-13T21:11:20;97385.22;;;10.72;53.20
69911;BME280;63555;49.920;17.868;2023-03-13T21:16:20;97386.34;;;10.70;53.16
69911;BME280;63555;49.920;17.868;2023-03-13T21:21:21;97370.81;;;10.67;53.27
69911;BME280;63555;49.920;17.868;2023-03-13T21:26:21;97379.78;;;10.56;53.34
69911;BME280;63555;49.920;17.868;2023-03-13T21:31:22;97385.66;;;10.50;53.14
69911;BME280;63555;49.920;17.868;2023-03-13T21:36:22;97375.63;;;10.53;53.65
69911;BME280;63555;49.920;17.868;2023-03-13T21:41:22;97348.38;;;10.45;53.62
69911;BME280;63555;49.920;17.868;2023-03-13T21:46:23;97336.53;;;10.31;53.84
69911;BME280;63555;49.920;17.868;2023-03-13T21:51:25;97337.69;;;10.19;53.76
69911;BME280;63555;49.920;17.868;2023-03-13T21:56:25;97308.53;;;10.03;54.20
69911;BME280;63555;49.920;17.868;2023-03-13T22:01:25;97309.41;;;9.94;54.68
69911;BME280;63555;49.920;17.868;2023-03-13T22:06:26;97286.41;;;9.96;54.65
69911;BME280;63555;49.920;17.868;2023-03-13T22:11:26;97288.06;;;9.97;54.61
69911;BME280;63555;49.920;17.868;2023-03-13T22:16:26;97281.97;;;9.96;54.66
69911;BME280;63555;49.920;17.868;2023-03-13T22:21:27;97265.25;;;9.87;55.24
69911;BME280;63555;49.920;17.868;2023-03-13T22:26:27;97241.56;;;9.87;55.12
69911;BME280;63555;49.920;17.868;2023-03-13T22:31:28;97250.13;;;9.89;55.42
69911;BME280;63555;49.920;17.868;2023-03-13T22:36:28;97215.53;;;9.84;55.45
69911;BME280;63555;49.920;17.868;2023-03-13T22:41:29;97219.81;;;9.85;55.81
69911;BME280;63555;49.920;17.868;2023-03-13T22:46:29;97218.59;;;9.80;55.70
69911;BME280;63555;49.920;17.868;2023-03-13T22:51:29;97228.22;;;9.71;56.05
69911;BME280;63555;49.920;17.868;2023-03-13T22:56:30;97227.44;;;9.61;56.37
69911;BME280;63555;49.920;17.868;2023-03-13T23:01:31;97208.22;;;9.51;56.60
69911;BME280;63555;49.920;17.868;2023-03-13T23:06:31;97221.88;;;9.37;57.13
69911;BME280;63555;49.920;17.868;2023-03-13T23:11:32;97209.50;;;9.19;57.77
69911;BME280;63555;49.920;17.868;2023-03-13T23:16:32;97209.41;;;9.11;57.87
69911;BME280;63555;49.920;17.868;2023-03-13T23:21:32;97188.69;;;8.99;58.18
69911;BME280;63555;49.920;17.868;2023-03-13T23:26:33;97184.84;;;8.93;58.14
69911;BME280;63555;49.920;17.868;2023-03-13T23:31:33;97163.56;;;8.86;58.15
69911;BME280;63555;49.920;17.868;2023-03-13T23:36:34;97139.38;;;8.83;58.43
69911;BME280;63555;49.920;17.868;2023-03-13T23:41:35;97144.78;;;8.81;58.52
69911;BME280;63555;49.920;17.868;2023-03-13T23:46:35;97120.63;;;8.68;58.88
69911;BME280;63555;49.920;17.868;2023-03-13T23:51:36;97103.63;;;8.53;58.66
69911;BME280;63555;49.920;17.868;2023-03-13T23:56:36;97088.03;;;8.51;59.03
